Map

Track Data

SID SEASON NUMBER BASIN SUBBASIN NAME ISO_TIME NATURE LAT LON WMO_WIND WMO_PRES WMO_AGENCY TRACK_TYPE DIST2LAND LANDFALL IFLAG USA_AGENCY USA_ATCF_ID USA_LAT USA_LON USA_RECORD USA_STATUS USA_WIND USA_PRES USA_SSHS USA_R34_NE USA_R34_SE USA_R34_SW USA_R34_NW USA_R50_NE USA_R50_SE USA_R50_SW USA_R50_NW USA_R64_NE USA_R64_SE USA_R64_SW USA_R64_NW USA_POCI USA_ROCI USA_RMW USA_EYE TOKYO_LAT TOKYO_LON TOKYO_GRADE TOKYO_WIND TOKYO_PRES TOKYO_R50_DIR TOKYO_R50_LONG TOKYO_R50_SHORT TOKYO_R30_DIR TOKYO_R30_LONG TOKYO_R30_SHORT TOKYO_LAND CMA_LAT CMA_LON CMA_CAT CMA_WIND CMA_PRES HKO_LAT HKO_LON HKO_CAT HKO_WIND HKO_PRES NEWDELHI_LAT NEWDELHI_LON NEWDELHI_GRADE NEWDELHI_WIND NEWDELHI_PRES NEWDELHI_CI NEWDELHI_DP NEWDELHI_POCI REUNION_LAT REUNION_LON REUNION_TYPE REUNION_WIND REUNION_PRES REUNION_TNUM REUNION_CI REUNION_RMW REUNION_R34_NE REUNION_R34_SE REUNION_R34_SW REUNION_R34_NW REUNION_R50_NE REUNION_R50_SE REUNION_R50_SW REUNION_R50_NW REUNION_R64_NE REUNION_R64_SE REUNION_R64_SW REUNION_R64_NW BOM_LAT BOM_LON BOM_TYPE BOM_WIND BOM_PRES BOM_TNUM BOM_CI BOM_RMW BOM_R34_NE BOM_R34_SE BOM_R34_SW BOM_R34_NW BOM_R50_NE BOM_R50_SE BOM_R50_SW BOM_R50_NW BOM_R64_NE BOM_R64_SE BOM_R64_SW BOM_R64_NW BOM_ROCI BOM_POCI BOM_EYE BOM_POS_METHOD BOM_PRES_METHOD NADI_LAT NADI_LON NADI_CAT NADI_WIND NADI_PRES WELLINGTON_LAT WELLINGTON_LON WELLINGTON_WIND WELLINGTON_PRES DS824_LAT DS824_LON DS824_STAGE DS824_WIND DS824_PRES TD9636_LAT TD9636_LON TD9636_STAGE TD9636_WIND TD9636_PRES TD9635_LAT TD9635_LON TD9635_WIND TD9635_PRES TD9635_ROCI NEUMANN_LAT NEUMANN_LON NEUMANN_CLASS NEUMANN_WIND NEUMANN_PRES MLC_LAT MLC_LON MLC_CLASS MLC_WIND MLC_PRES USA_GUST BOM_GUST BOM_GUST_PER REUNION_GUST REUNION_GUST_PER USA_SEAHGT USA_SEARAD_NE USA_SEARAD_SE USA_SEARAD_SW USA_SEARAD_NW STORM_SPEED STORM_DIR
1977224N23149 1977 64 WP MM NOT_NAMED 1977-08-12 06:00:00 TS 23.0000 149.000 main 1593 1567 __O___________ -1 23.0000 149.000 0 19 1000 9 268
1977224N23149 1977 64 WP MM NOT_NAMED 1977-08-12 09:00:00 TS 22.9876 148.512 main 1567 1542 __P___________ -1 22.9876 148.512 0 19 1000 9 270
1977224N23149 1977 64 WP MM NOT_NAMED 1977-08-12 12:00:00 TS 23.0000 148.000 main 1542 1518 __O___________ -1 23.0000 148.000 0 19 1000 10 273
1977224N23149 1977 64 WP MM NOT_NAMED 1977-08-12 15:00:00 TS 23.0376 147.463 main 1518 1495 __P___________ -1 23.0376 147.463 0 19 1000 9 270
1977224N23149 1977 64 WP MM NOT_NAMED 1977-08-12 18:00:00 TS 23.0000 147.000 main 1495 1491 __O___________ -1 23.0000 147.000 0 19 1000 7 249
1977224N23149 1977 64 WP MM NOT_NAMED 1977-08-12 21:00:00 TS 22.7870 146.750 main 1507 1502 __P___________ -1 22.7870 146.750 0 21 999 7 223
1977224N23149 1977 64 WP MM NOT_NAMED 1977-08-13 00:00:00 TS 22.5000 146.500 main 1525 1525 __O___________ -1 22.5000 146.500 1 23 998 9 226
1977224N23149 1977 64 WP MM NOT_NAMED 1977-08-13 03:00:00 TS 22.1747 146.074 main 1540 1536 __P___________ -1 22.1747 146.074 1 23 998 11 242
1977224N23149 1977 64 WP MM NOT_NAMED 1977-08-13 06:00:00 TS 22.0000 145.500 main 1539 1484 __O___________ -1 22.0000 145.500 1 23 998 12 275
1977224N23149 1977 64 WP MM NOT_NAMED 1977-08-13 09:00:00 TS 22.2876 144.790 main 1484 1440 __P___________ -1 22.2876 144.790 1 23 998 15 290
1977224N23149 1977 64 WP MM NOT_NAMED 1977-08-13 12:00:00 TS 22.5000 144.000 main 1440 1435 __O___________ -1 22.5000 144.000 1 23 998 14 263
1977224N23149 1977 64 WP MM NOT_NAMED 1977-08-13 15:00:00 TS 22.1121 143.249 main 1455 1455 __P___________ -1 22.1121 143.249 1 23 998 17 234
1977224N23149 1977 64 WP MM NOT_NAMED 1977-08-13 18:00:00 TS 21.5000 142.500 main 1482 1482 __O___________ -1 21.5000 142.500 1 23 998 18 230
1977224N23149 1977 64 WP MM NOT_NAMED 1977-08-13 21:00:00 TS 20.9247 141.749 main 1511 1511 __P___________ -1 20.9247 141.749 1 23 998 17 234
1977224N23149 1977 64 WP MM NOT_NAMED 1977-08-14 00:00:00 TS 20.5000 141.000 main 1529 1515 __O___________ -1 20.5000 141.000 1 23 998 16 249
1977224N23149 1977 64 WP MM NOT_NAMED 1977-08-14 03:00:00 TS 20.3506 140.138 main 1503 1460 __P___________ -1 20.3506 140.138 1 26 996 14 270
1977224N23149 1977 64 WP MM NOT_NAMED 1977-08-14 06:00:00 TS 20.5000 139.500 main 1460 1417 __O___________ -1 20.5000 139.500 1 29 994 9 312
1977224N23149 1977 64 WP MM NOT_NAMED 1977-08-14 09:00:00 TS 20.9469 139.432 main 1417 1367 __P___________ -1 20.9469 139.432 1 29 994 10 1
1977224N23149 1977 64 WP MM NOT_NAMED 1977-08-14 12:00:00 TS 21.5000 139.500 main 1367 1327 __O___________ -1 21.5000 139.500 1 29 994 9 351
1977224N23149 1977 64 WP MM NOT_NAMED 1977-08-14 15:00:00 TS 21.8649 139.267 main 1318 1267 __P___________ -1 21.8649 139.267 1 29 994 9 322
1977224N23149 1977 64 WP MM NOT_NAMED 1977-08-14 18:00:00 TS 22.2000 138.900 main 1267 1207 __O___________ -1 22.2000 138.900 1 29 994 11 315
1977224N23149 1977 64 WP MM NOT_NAMED 1977-08-14 21:00:00 TS 22.6153 138.443 main 1201 1141 __P___________ -1 22.6153 138.443 1 29 993 12 314
1977224N23149 1977 64 WP MM NOT_NAMED 1977-08-15 00:00:00 TS 23.0000 138.000 main 1141 1096 __O___________ -1 23.0000 138.000 1 29 992 9 316
1977224N23149 1977 64 WP MM NOT_NAMED 1977-08-15 03:00:00 TS 23.2947 137.735 main 1096 1067 __P___________ -1 23.2947 137.735 1 29 992 7 317
1977224N23149 1977 64 WP MM NOT_NAMED 1977-08-15 06:00:00 TS 23.5000 137.500 main 1067 1041 __O___________ -1 23.5000 137.500 1 29 992 6 303
1977224N23149 1977 64 WP MM NOT_NAMED 1977-08-15 09:00:00 TS 23.6300 137.172 main 1041 1010 __P___________ -1 23.6300 137.172 1 29 992 7 287
1977224N23149 1977 64 WP MM NOT_NAMED 1977-08-15 12:00:00 TS 23.7000 136.800 main 1010 989 __O___________ -1 23.7000 136.800 1 29 992 7 280
1977224N23149 1977 64 WP MM NOT_NAMED 1977-08-15 15:00:00 TS 23.7498 136.422 main 989 958 __P___________ -1 23.7498 136.422 1 26 992 7 278
1977224N23149 1977 64 WP MM NOT_NAMED 1977-08-15 18:00:00 TS 23.8000 136.000 main 958 922 __O___________ -1 23.8000 136.000 1 23 992 8 278
1977224N23149 1977 64 WP MM NOT_NAMED 1977-08-15 21:00:00 TS 23.8700 135.515 main 922 888 __P___________ -1 23.8700 135.515 1 23 992 9 282
1977224N23149 1977 64 WP MM NOT_NAMED 1977-08-16 00:00:00 TS 24.0000 135.000 main 888 846 __O___________ -1 24.0000 135.000 1 23 992 10 291
1977224N23149 1977 64 WP MM NOT_NAMED 1977-08-16 03:00:00 TS 24.2273 134.500 main 846 794 __P___________ -1 24.2273 134.500 1 21 992 10 299
1977224N23149 1977 64 WP MM NOT_NAMED 1977-08-16 06:00:00 TS 24.5000 134.000 main 794 755 __O___________ -1 24.5000 134.000 0 19 992 11 300
1977224N23149 1977 64 WP MM NOT_NAMED 1977-08-16 09:00:00 TS 24.7578 133.500 main 744 706 __P___________ -1 24.7578 133.500 0 19 992 10 299
1977224N23149 1977 64 WP MM NOT_NAMED 1977-08-16 12:00:00 TS 25.0000 133.000 main 706 __O___________ -1 25.0000 133.000 0 19 992 10 298

Digital Typhoon Data and Search

About IBTrACS Database

This database is a web-friendly format of International Best Track Archive for Climate Stewardship (IBTrACS), a global best track data archive curated by NOAA dating back to 1842.

Updated: 2021-10-08